Alam Padu — 9MGK6 — position and weather

sailwx.info

Track history (hours):
 
Tides and Currents Weather Stations Pressure Air Temp Water Temp Dewpoint Dewpoint Depression Visibility Wind Speed Wind Dir Waves Ship Positions

Alam Padu

Last reported at 2014-Aug-22 01:29 UTC. Time now 2014-Aug-22 01:58 UTC.
Position N 22°38' E 113°42'.

Length 229 m; draft 14.7 m.

Type: Cargo ship. MMSI: 533924000.

Date/timePositionNaut miles runAvg speedWind from/ knotsBaromVisibWave heightAir tempDewpointWater temp
2014-Aug-22 01:29N 22°38' E 113°42'1010.8
2014-Aug-22 00:33N 22°29' E 113°45'  
2014-Aug-16 17:33N 01°16' E 104°05'3 2.6
2014-Aug-16 16:33N 01°18' E 104°04'0 0.1
2014-Aug-16 15:33N 01°18' E 104°04'0 0.0
2014-Aug-16 14:30N 01°18' E 104°04'0 0.1
2014-Aug-16 13:24N 01°18' E 104°04'0 0.0
2014-Aug-16 11:33N 01°18' E 104°04'0 0.1
2014-Aug-16 09:33N 01°18' E 104°04'0 0.1
2014-Aug-16 07:21N 01°18' E 104°04'0 0.0
2014-Aug-16 06:30N 01°18' E 104°04'0 0.1
2014-Aug-16 05:30N 01°18' E 104°04'0 0.0
2014-Aug-16 04:33N 01°18' E 104°04'0 0.1
2014-Aug-16 03:33N 01°18' E 104°04'0 0.2
2014-Aug-16 02:33N 01°18' E 104°04'2 2.3
2014-Aug-16 01:33N 01°17' E 104°06'3 2.6
2014-Aug-16 00:32N 01°15' E 104°04'8 8.3
2014-Aug-15 23:33N 01°13' E 103°56'8 8.3
2014-Aug-15 22:32N 01°10' E 103°49'  
Track history (hours):
 
Tides and Currents Weather Stations Pressure Air Temp Water Temp Dewpoint Dewpoint Depression Visibility Wind Speed Wind Dir Waves Ship Positions

Alam Padu

Last reported at 2014-Aug-22 01:29 UTC. Time now 2014-Aug-22 01:58 UTC.
Position N 22°38' E 113°42'.

Length 229 m; draft 14.7 m.

Type: Cargo ship. MMSI: 533924000.

Date/timePositionNaut miles runAvg speedWind from/ knotsBaromVisibWave heightAir tempDewpointWater temp
2014-Aug-22 01:29N 22°38' E 113°42'1010.8
2014-Aug-22 00:33N 22°29' E 113°45'  
2014-Aug-16 17:33N 01°16' E 104°05'3 2.6
2014-Aug-16 16:33N 01°18' E 104°04'0 0.1
2014-Aug-16 15:33N 01°18' E 104°04'0 0.0
2014-Aug-16 14:30N 01°18' E 104°04'0 0.1
2014-Aug-16 13:24N 01°18' E 104°04'0 0.0
2014-Aug-16 11:33N 01°18' E 104°04'0 0.1
2014-Aug-16 09:33N 01°18' E 104°04'0 0.1
2014-Aug-16 07:21N 01°18' E 104°04'0 0.0
2014-Aug-16 06:30N 01°18' E 104°04'0 0.1
2014-Aug-16 05:30N 01°18' E 104°04'0 0.0
2014-Aug-16 04:33N 01°18' E 104°04'0 0.1
2014-Aug-16 03:33N 01°18' E 104°04'0 0.2
2014-Aug-16 02:33N 01°18' E 104°04'2 2.3
2014-Aug-16 01:33N 01°17' E 104°06'3 2.6
2014-Aug-16 00:32N 01°15' E 104°04'8 8.3
2014-Aug-15 23:33N 01°13' E 103°56'8 8.3
2014-Aug-15 22:32N 01°10' E 103°49'  

Dump ship's entire track history